Time;durP1;ratioP1;P1;durP2;ratioP2;P2;SDS_P1;SDS_P2;PMS_P1;PMS_P2;Temp;Humidity;BMP_temperature;BMP_pressure;BME280_temperature;BME280_humidity;BME280_pressure;Samples;Min_cycle;Max_cycle;Signal;HPM_P1;HPM_P2
2022/08/24 00:01:49;;;;;;;;;;;;;;;;;;5037794;28;19920;-84
2022/08/24 00:04:14;;;;;;;;;;;;;;;;;;5044360;28;19909;-84
2022/08/24 00:06:39;;;;;;;;;;;;;;;;;;5041985;28;19909;-84
2022/08/24 00:09:05;;;;;;;;;;;;;;;;;;5042310;28;20253;-84
2022/08/24 00:11:30;;;;;;;;;;;;;;;;;;5040360;28;19916;-84
2022/08/24 00:13:55;;;;;;;;;;;;;;;;;;5037027;28;19917;-85
2022/08/24 00:16:21;;;;;;;;;;;;;;;;;;5039382;28;19935;-85
2022/08/24 00:18:46;;;;;;;;;;;;;;;;;;5046579;28;19908;-86
2022/08/24 00:21:12;;;;;;;;;;;;;;;;;;5041731;28;19999;-86
2022/08/24 00:23:37;;;;;;;;;;;;;;;;;;5038599;28;20008;-88
2022/08/24 00:26:03;;;;;;;;;;;;;;;;;;5044904;28;19904;-87
2022/08/24 00:28:29;;;;;;;;;;;;;;;;;;5045967;28;19909;-85
2022/08/24 00:30:54;;;;;;;;;;;;;;;;;;5051613;28;19916;-86
2022/08/24 00:33:19;;;;;;;;;;;;;;;;;;5038901;28;20072;-87
2022/08/24 00:35:44;;;;;;;;;;;;;;;;;;5049794;28;19939;-87
2022/08/24 00:38:09;;;;;;;;;;;;;;;;;;5044479;28;19916;-87
2022/08/24 00:40:34;;;;;;;;;;;;;;;;;;5037207;28;20314;-87
2022/08/24 00:43:02;;;;;;;;;;;;;;;;;;5035743;28;19913;-87
2022/08/24 00:45:27;;;;;;;;;;;;;;;;;;5038805;28;19963;-87
2022/08/24 00:47:52;;;;;;;;;;;;;;;;;;5045143;28;19948;-87
2022/08/24 00:50:18;;;;;;;;;;;;;;;;;;5048298;28;20391;-87
2022/08/24 00:52:43;;;;;;;;;;;;;;;;;;5049203;28;19908;-87
2022/08/24 00:55:08;;;;;;;;;;;;;;;;;;5049420;28;20054;-87
2022/08/24 00:57:33;;;;;;;;;;;;;;;;;;5037981;28;19960;-87
2022/08/24 00:59:58;;;;;;;;;;;;;;;;;;5034669;28;20311;-88
2022/08/24 01:02:23;;;;;;;;;;;;;;;;;;5044086;28;19908;-87
2022/08/24 01:04:49;;;;;;;;;;;;;;;;;;5040125;28;19913;-87
2022/08/24 01:07:14;;;;;;;;;;;;;;;;;;5045292;28;19913;-87
2022/08/24 01:09:39;;;;;;;;;;;;;;;;;;5036494;28;19982;-87
2022/08/24 01:12:04;;;;;;;;;;;;;;;;;;5045381;28;19932;-86
2022/08/24 01:14:29;;;;;;;;;;;;;;;;;;5040017;28;20407;-87
2022/08/24 01:19:52;;;;;;;;;;;;;;;;;;5034969;28;20000;-88
2022/08/24 01:22:17;;;;;;;;;;;;;;;;;;5040500;28;19911;-88
2022/08/24 01:24:43;;;;;;;;;;;;;;;;;;5038361;28;20353;-87
2022/08/24 01:27:08;;;;;;;;;;;;;;;;;;5040337;28;19905;-87
2022/08/24 01:29:33;;;;;;;;;;;;;;;;;;5034947;28;19909;-88
2022/08/24 01:31:58;;;;;;;;;;;;;;;;;;5036085;28;19909;-86
2022/08/24 01:34:24;;;;;;;;;;;;;;;;;;5034122;28;20368;-87
2022/08/24 01:36:49;;;;;;;;;;;;;;;;;;5051725;28;19912;-87
2022/08/24 01:39:14;;;;;;;;;;;;;;;;;;5046320;28;19927;-87
2022/08/24 01:41:39;;;;;;;;;;;;;;;;;;5047470;28;20337;-87
2022/08/24 01:44:05;;;;;;;;;;;;;;;;;;5034596;28;19916;-86
2022/08/24 01:46:30;;;;;;;;;;;;;;;;;;5038785;28;19978;-87
2022/08/24 01:48:56;;;;;;;;;;;;;;;;;;5041814;28;20323;-85
2022/08/24 01:51:21;;;;;;;;;;;;;;;;;;5049908;28;20314;-87
2022/08/24 01:53:48;;;;;;;;;;;;;;;;;;5034973;28;19939;-86
2022/08/24 01:56:13;;;;;;;;;;;;;;;;;;5046031;28;19916;-87
2022/08/24 01:58:38;;;;;;;;;;;;;;;;;;5045555;28;19909;-87
2022/08/24 02:01:03;;;;;;;;;;;;;;;;;;5039648;28;19999;-86
2022/08/24 02:03:28;;;;;;;;;;;;;;;;;;5036713;28;20373;-87
2022/08/24 02:05:54;;;;;;;;;;;;;;;;;;5045213;28;20035;-87
2022/08/24 02:08:19;;;;;;;;;;;;;;;;;;5038506;28;19920;-87
2022/08/24 02:10:44;;;;;;;;;;;;;;;;;;5047583;28;19923;-87
2022/08/24 02:13:09;;;;;;;;;;;;;;;;;;5051566;28;19950;-87
2022/08/24 02:15:36;;;;;;;;;;;;;;;;;;5043419;28;19936;-87
2022/08/24 02:18:01;;;;;;;;;;;;;;;;;;5042478;28;19909;-88
2022/08/24 02:20:27;;;;;;;;;;;;;;;;;;5043850;28;19915;-87
2022/08/24 02:22:52;;;;;;;;;;;;;;;;;;5040857;28;20008;-87
2022/08/24 02:25:17;;;;;;;;;;;;;;;;;;5052505;28;20268;-87
2022/08/24 02:27:42;;;;;;;;;;;;;;;;;;5038937;28;19959;-87
2022/08/24 02:30:07;;;;;;;;;;;;;;;;;;5036976;28;19909;-86
2022/08/24 02:32:32;;;;;;;;;;;;;;;;;;5038644;28;19952;-87
2022/08/24 02:34:58;;;;;;;;;;;;;;;;;;5046731;28;19913;-85
2022/08/24 02:37:23;;;;;;;;;;;;;;;;;;5054565;28;19923;-87
2022/08/24 02:39:48;;;;;;;;;;;;;;;;;;5048117;28;19912;-86
2022/08/24 02:42:14;;;;;;;;;;;;;;;;;;5044782;28;20063;-87
2022/08/24 02:44:40;;;;;;;;;;;;;;;;;;5047192;28;19913;-85
2022/08/24 02:47:05;;;;;;;;;;;;;;;;;;5040896;28;19905;-85
2022/08/24 02:49:30;;;;;;;;;;;;;;;;;;5047461;28;19954;-86
2022/08/24 02:51:55;;;;;;;;;;;;;;;;;;5053303;28;19916;-86
2022/08/24 02:54:20;;;;;;;;;;;;;;;;;;5037257;28;19920;-86
2022/08/24 02:56:45;;;;;;;;;;;;;;;;;;5045954;28;19919;-87
2022/08/24 02:59:11;;;;;;;;;;;;;;;;;;5038974;28;20000;-86
2022/08/24 03:01:36;;;;;;;;;;;;;;;;;;5041750;28;19909;-87
2022/08/24 03:04:01;;;;;;;;;;;;;;;;;;5037299;28;19995;-86
2022/08/24 03:06:26;;;;;;;;;;;;;;;;;;5050616;28;20379;-86
2022/08/24 03:08:51;;;;;;;;;;;;;;;;;;5040460;28;19996;-87
2022/08/24 03:11:16;;;;;;;;;;;;;;;;;;5049750;28;19916;-86
2022/08/24 03:13:42;;;;;;;;;;;;;;;;;;5046427;28;19917;-86
2022/08/24 03:16:07;;;;;;;;;;;;;;;;;;5045106;28;19978;-86
2022/08/24 03:18:32;;;;;;;;;;;;;;;;;;5046604;28;19924;-87
2022/08/24 03:20:57;;;;;;;;;;;;;;;;;;5048896;28;20316;-87
2022/08/24 03:23:22;;;;;;;;;;;;;;;;;;5037300;28;19917;-87
2022/08/24 03:25:47;;;;;;;;;;;;;;;;;;5042482;28;20438;-87
2022/08/24 03:28:12;;;;;;;;;;;;;;;;;;5038873;28;19916;-87
2022/08/24 03:30:38;;;;;;;;;;;;;;;;;;5040488;28;19913;-87
2022/08/24 03:33:04;;;;;;;;;;;;;;;;;;5040549;28;19909;-85
2022/08/24 03:35:29;;;;;;;;;;;;;;;;;;5052645;28;19915;-87
2022/08/24 03:37:54;;;;;;;;;;;;;;;;;;5047073;28;19909;-86
2022/08/24 03:40:19;;;;;;;;;;;;;;;;;;5052185;28;19912;-87
2022/08/24 03:42:44;;;;;;;;;;;;;;;;;;5042948;28;19960;-86
2022/08/24 03:45:09;;;;;;;;;;;;;;;;;;5047577;28;20322;-85
2022/08/24 03:47:34;;;;;;;;;;;;;;;;;;5045646;28;20391;-85
2022/08/24 03:50:00;;;;;;;;;;;;;;;;;;5045788;28;19992;-86
2022/08/24 03:52:25;;;;;;;;;;;;;;;;;;5037729;28;20347;-86
2022/08/24 03:54:51;;;;;;;;;;;;;;;;;;5043262;28;19924;-87
2022/08/24 03:57:16;;;;;;;;;;;;;;;;;;5044673;28;19909;-86
2022/08/24 03:59:41;;;;;;;;;;;;;;;;;;5044738;28;19909;-86
2022/08/24 04:02:06;;;;;;;;;;;;;;;;;;5040167;28;19924;-86
2022/08/24 04:04:31;;;;;;;;;;;;;;;;;;5041201;28;20379;-87
2022/08/24 04:06:56;;;;;;;;;;;;;;;;;;5043112;28;20280;-86
2022/08/24 04:09:21;;;;;;;;;;;;;;;;;;5042495;28;19997;-86
2022/08/24 04:11:47;;;;;;;;;;;;;;;;;;5048265;28;19916;-86
2022/08/24 04:14:12;;;;;;;;;;;;;;;;;;5049183;28;19913;-87
2022/08/24 04:16:37;;;;;;;;;;;;;;;;;;5049855;28;20407;-86
2022/08/24 04:19:02;;;;;;;;;;;;;;;;;;5046793;28;20387;-86
2022/08/24 04:21:27;;;;;;;;;;;;;;;;;;5046219;28;19912;-87
2022/08/24 04:23:52;;;;;;;;;;;;;;;;;;5044337;28;19917;-87
2022/08/24 04:26:17;;;;;;;;;;;;;;;;;;5042033;28;19959;-86
2022/08/24 04:28:43;;;;;;;;;;;;;;;;;;5040179;28;19909;-86
2022/08/24 04:31:08;;;;;;;;;;;;;;;;;;5035702;28;20039;-86
2022/08/24 04:33:33;;;;;;;;;;;;;;;;;;5035252;28;19917;-86
2022/08/24 04:35:58;;;;;;;;;;;;;;;;;;5041011;28;19909;-86
2022/08/24 04:38:23;;;;;;;;;;;;;;;;;;5046061;28;19909;-87
2022/08/24 04:40:49;;;;;;;;;;;;;;;;;;5037748;28;19920;-87
2022/08/24 04:43:14;;;;;;;;;;;;;;;;;;5035344;28;19955;-86
2022/08/24 04:45:39;;;;;;;;;;;;;;;;;;5037811;28;19909;-87
2022/08/24 04:48:04;;;;;;;;;;;;;;;;;;5036403;28;20319;-87
2022/08/24 04:50:29;;;;;;;;;;;;;;;;;;5040360;28;19944;-87
2022/08/24 04:52:54;;;;;;;;;;;;;;;;;;5037495;28;20241;-87
2022/08/24 04:55:19;;;;;;;;;;;;;;;;;;5043597;28;19909;-86
2022/08/24 04:57:45;;;;;;;;;;;;;;;;;;5036959;28;19956;-86
2022/08/24 05:00:10;;;;;;;;;;;;;;;;;;5040002;28;19916;-87
2022/08/24 05:02:36;;;;;;;;;;;;;;;;;;5036479;28;20005;-86
2022/08/24 05:05:01;;;;;;;;;;;;;;;;;;5048379;28;19905;-88
2022/08/24 05:07:26;;;;;;;;;;;;;;;;;;5052083;28;19909;-87
2022/08/24 05:09:51;;;;;;;;;;;;;;;;;;5047786;28;19919;-86
2022/08/24 05:12:17;;;;;;;;;;;;;;;;;;5047410;28;20446;-87
2022/08/24 05:14:42;;;;;;;;;;;;;;;;;;5047595;28;20013;-87
2022/08/24 05:17:07;;;;;;;;;;;;;;;;;;5037284;28;19960;-85
2022/08/24 05:19:32;;;;;;;;;;;;;;;;;;5034639;28;19909;-85
2022/08/24 05:21:58;;;;;;;;;;;;;;;;;;5037101;28;19904;-85
2022/08/24 05:24:23;;;;;;;;;;;;;;;;;;5048673;28;19999;-87
2022/08/24 05:26:48;;;;;;;;;;;;;;;;;;5033280;28;19909;-87
2022/08/24 05:29:13;;;;;;;;;;;;;;;;;;5046997;28;20276;-86
2022/08/24 05:31:39;;;;;;;;;;;;;;;;;;5046521;28;19918;-87
2022/08/24 05:34:04;;;;;;;;;;;;;;;;;;5043600;28;19920;-86
2022/08/24 05:36:29;;;;;;;;;;;;;;;;;;5037640;28;19913;-86
2022/08/24 05:38:54;;;;;;;;;;;;;;;;;;5043735;28;19951;-86
2022/08/24 05:41:19;;;;;;;;;;;;;;;;;;5036068;28;20388;-86
2022/08/24 05:43:44;;;;;;;;;;;;;;;;;;5034377;28;19999;-86
2022/08/24 05:46:10;;;;;;;;;;;;;;;;;;5039051;28;19940;-86
2022/08/24 05:48:36;;;;;;;;;;;;;;;;;;5034347;28;19909;-85
2022/08/24 05:51:02;;;;;;;;;;;;;;;;;;5043214;28;19954;-86
2022/08/24 05:53:27;;;;;;;;;;;;;;;;;;5038092;28;19917;-86
2022/08/24 05:55:53;;;;;;;;;;;;;;;;;;5036277;28;19916;-87
2022/08/24 05:58:18;;;;;;;;;;;;;;;;;;5044529;28;19908;-86
2022/08/24 06:00:44;;;;;;;;;;;;;;;;;;5035733;28;19909;-86
2022/08/24 06:03:09;;;;;;;;;;;;;;;;;;5038108;28;19928;-86
2022/08/24 06:05:34;;;;;;;;;;;;;;;;;;5040350;28;19927;-86
2022/08/24 06:08:00;;;;;;;;;;;;;;;;;;5039258;28;19924;-85
2022/08/24 06:10:25;;;;;;;;;;;;;;;;;;5042224;28;19971;-86
2022/08/24 06:12:50;;;;;;;;;;;;;;;;;;5040758;28;19909;-86
2022/08/24 06:15:16;;;;;;;;;;;;;;;;;;5044130;28;20264;-84
2022/08/24 06:17:41;;;;;;;;;;;;;;;;;;5048594;28;19916;-86
2022/08/24 06:20:06;;;;;;;;;;;;;;;;;;5040108;28;20339;-86
2022/08/24 06:22:31;;;;;;;;;;;;;;;;;;5038385;28;20000;-86
2022/08/24 06:27:40;;;;;;;;;;;;;;;;;;5038655;28;19955;-86
2022/08/24 06:30:05;;;;;;;;;;;;;;;;;;5037508;28;19941;-85
2022/08/24 06:32:31;;;;;;;;;;;;;;;;;;5038848;28;19912;-86
2022/08/24 06:34:56;;;;;;;;;;;;;;;;;;5041069;28;19913;-86
2022/08/24 06:37:25;;;;;;;;;;;;;;;;;;5047975;28;19963;-87
2022/08/24 06:39:50;;;;;;;;;;;;;;;;;;5039167;28;19920;-86
2022/08/24 06:42:15;;;;;;;;;;;;;;;;;;5047983;28;19909;-85
2022/08/24 06:44:40;;;;;;;;;;;;;;;;;;5050751;28;19912;-87
2022/08/24 06:47:05;;;;;;;;;;;;;;;;;;5040130;28;20287;-86
2022/08/24 06:49:31;;;;;;;;;;;;;;;;;;5042135;28;20253;-85
2022/08/24 06:51:56;;;;;;;;;;;;;;;;;;5042969;28;19955;-87
2022/08/24 06:54:21;;;;;;;;;;;;;;;;;;5044033;28;20371;-86
2022/08/24 06:56:46;;;;;;;;;;;;;;;;;;5039983;28;19911;-86
2022/08/24 06:59:11;;;;;;;;;;;;;;;;;;5043561;28;19920;-86
2022/08/24 07:01:36;;;;;;;;;;;;;;;;;;5044754;28;20348;-86
2022/08/24 07:04:01;;;;;;;;;;;;;;;;;;5048862;28;19959;-87
2022/08/24 07:06:27;;;;;;;;;;;;;;;;;;5047293;28;19909;-87
2022/08/24 07:08:52;;;;;;;;;;;;;;;;;;5039589;28;19915;-86
2022/08/24 07:11:17;;;;;;;;;;;;;;;;;;5043306;28;19909;-86
2022/08/24 07:13:42;;;;;;;;;;;;;;;;;;5037696;28;20372;-84
2022/08/24 07:16:08;;;;;;;;;;;;;;;;;;5044070;28;20455;-87
2022/08/24 07:18:33;;;;;;;;;;;;;;;;;;5040660;28;20268;-87
2022/08/24 07:20:59;;;;;;;;;;;;;;;;;;5043094;28;19913;-86
2022/08/24 07:23:24;;;;;;;;;;;;;;;;;;5038993;28;19920;-80
2022/08/24 07:25:49;;;;;;;;;;;;;;;;;;5044351;28;19909;-80
2022/08/24 07:28:15;;;;;;;;;;;;;;;;;;5043872;28;19915;-80
2022/08/24 07:30:40;;;;;;;;;;;;;;;;;;5050893;28;19904;-80
2022/08/24 07:33:05;;;;;;;;;;;;;;;;;;5043324;28;20319;-80
2022/08/24 07:35:31;;;;;;;;;;;;;;;;;;5048542;28;19923;-81
2022/08/24 07:37:56;;;;;;;;;;;;;;;;;;5035349;28;20316;-80
2022/08/24 07:40:21;;;;;;;;;;;;;;;;;;5048805;28;20271;-80
2022/08/24 07:42:46;;;;;;;;;;;;;;;;;;5039920;28;19952;-79
2022/08/24 07:45:11;;;;;;;;;;;;;;;;;;5045682;28;19991;-80
2022/08/24 07:47:36;;;;;;;;;;;;;;;;;;5035253;28;19924;-80
2022/08/24 07:50:02;;;;;;;;;;;;;;;;;;5040793;28;19909;-80
2022/08/24 07:52:27;;;;;;;;;;;;;;;;;;5044528;28;19905;-80
2022/08/24 07:54:52;;;;;;;;;;;;;;;;;;5047683;28;19924;-80
2022/08/24 07:57:17;;;;;;;;;;;;;;;;;;5045853;28;20272;-79
2022/08/24 07:59:42;;;;;;;;;;;;;;;;;;5052191;28;19911;-79
2022/08/24 08:02:08;;;;;;;;;;;;;;;;;;5045948;28;19917;-79
2022/08/24 08:04:33;;;;;;;;;;;;;;;;;;5036067;28;19916;-79
2022/08/24 08:07:00;;;;;;;;;;;;;;;;;;5047199;28;20392;-79
2022/08/24 08:09:25;;;;;;;;;;;;;;;;;;5049387;28;20356;-79
2022/08/24 08:11:51;;;;;;;;;;;;;;;;;;5049248;28;20011;-78
2022/08/24 08:14:16;;;;;;;;;;;;;;;;;;5052948;28;19952;-79
2022/08/24 08:16:41;;;;;;;;;;;;;;;;;;5041639;28;19905;-79
2022/08/24 08:19:06;;;;;;;;;;;;;;;;;;5042228;28;19917;-79
2022/08/24 08:24:16;;;;;;;;;;;;;;;;;;5046317;28;20259;-79
2022/08/24 08:26:42;;;;;;;;;;;;;;;;;;5048639;28;19915;-79
2022/08/24 08:29:09;;;;;;;;;;;;;;;;;;5046489;28;19905;-79
2022/08/24 08:31:34;;;;;;;;;;;;;;;;;;5043590;28;19995;-79
2022/08/24 08:33:59;;;;;;;;;;;;;;;;;;5042531;28;20015;-79
2022/08/24 08:36:25;;;;;;;;;;;;;;;;;;5044129;28;19905;-80
2022/08/24 08:38:50;;;;;;;;;;;;;;;;;;5047792;28;20332;-80
2022/08/24 08:41:18;;;;;;;;;;;;;;;;;;5047901;28;19916;-79
2022/08/24 08:43:44;;;;;;;;;;;;;;;;;;5038776;28;19905;-78
2022/08/24 08:46:09;;;;;;;;;;;;;;;;;;5043260;28;19920;-79
2022/08/24 08:48:34;;;;;;;;;;;;;;;;;;5044233;28;19923;-79
2022/08/24 08:50:59;;;;;;;;;;;;;;;;;;5046984;28;19909;-79
2022/08/24 08:53:24;;;;;;;;;;;;;;;;;;5045401;28;20067;-79
2022/08/24 08:55:49;;;;;;;;;;;;;;;;;;5045883;28;20303;-79
2022/08/24 08:58:14;;;;;;;;;;;;;;;;;;5045666;28;19905;-79
2022/08/24 09:00:40;;;;;;;;;;;;;;;;;;5041198;28;19905;-78
2022/08/24 09:03:05;;;;;;;;;;;;;;;;;;5035692;28;19909;-78
2022/08/24 09:05:31;;;;;;;;;;;;;;;;;;5041509;28;19944;-78
2022/08/24 09:07:56;;;;;;;;;;;;;;;;;;5033350;28;19912;-78
2022/08/24 09:10:22;;;;;;;;;;;;;;;;;;5034139;28;19920;-78
2022/08/24 09:12:49;;;;;;;;;;;;;;;;;;5034600;28;19909;-78
2022/08/24 09:15:14;;;;;;;;;;;;;;;;;;5032773;28;19913;-78
2022/08/24 09:17:39;;;;;;;;;;;;;;;;;;5035534;28;20366;-78
2022/08/24 09:20:06;;;;;;;;;;;;;;;;;;5034195;28;20312;-78
2022/08/24 09:22:31;;;;;;;;;;;;;;;;;;5032463;28;20437;-78
2022/08/24 09:24:56;;;;;;;;;;;;;;;;;;5032361;28;20004;-78
2022/08/24 09:27:21;;;;;;;;;;;;;;;;;;5034899;28;20268;-78
2022/08/24 09:29:47;;;;;;;;;;;;;;;;;;5041047;28;19951;-78
2022/08/24 09:32:12;;;;;;;;;;;;;;;;;;5037318;28;19919;-78
2022/08/24 09:34:37;;;;;;;;;;;;;;;;;;5031507;28;20000;-78
2022/08/24 09:37:02;;;;;;;;;;;;;;;;;;5042886;28;19912;-78
2022/08/24 09:39:27;;;;;;;;;;;;;;;;;;5047710;28;20261;-78
2022/08/24 09:41:52;;;;;;;;;;;;;;;;;;5044069;28;19991;-78
2022/08/24 09:44:18;;;;;;;;;;;;;;;;;;5026815;28;19948;-78
2022/08/24 09:46:43;;;;;;;;;;;;;;;;;;5046922;28;19912;-79
2022/08/24 09:49:08;;;;;;;;;;;;;;;;;;5038826;28;19912;-78
2022/08/24 09:51:35;;;;;;;;;;;;;;;;;;5041497;28;21035;-78
2022/08/24 09:54:02;;;;;;;;;;;;;;;;;;5038570;28;20011;-79
2022/08/24 09:56:27;;;;;;;;;;;;;;;;;;5044849;28;20276;-78
2022/08/24 09:58:56;;;;;;;;;;;;;;;;;;5040899;28;19905;-78
2022/08/24 10:01:21;;;;;;;;;;;;;;;;;;5041372;28;19923;-78
2022/08/24 10:03:46;;;;;;;;;;;;;;;;;;5051298;28;19905;-78
2022/08/24 10:06:11;;;;;;;;;;;;;;;;;;5055926;28;20460;-78
2022/08/24 10:08:36;;;;;;;;;;;;;;;;;;5043128;28;19912;-79
2022/08/24 10:11:02;;;;;;;;;;;;;;;;;;5038703;28;20334;-79
2022/08/24 10:13:28;;;;;;;;;;;;;;;;;;5049580;28;20253;-79
2022/08/24 10:15:53;;;;;;;;;;;;;;;;;;5040232;28;19936;-80
2022/08/24 10:18:19;;;;;;;;;;;;;;;;;;5041744;28;19905;-79
2022/08/24 10:20:44;;;;;;;;;;;;;;;;;;5041686;28;19912;-80
2022/08/24 10:23:09;;;;;;;;;;;;;;;;;;5041281;28;19925;-86
2022/08/24 10:25:34;;;;;;;;;;;;;;;;;;5055932;28;20303;-80
2022/08/24 10:28:00;;;;;;;;;;;;;;;;;;5043853;28;20443;-79
2022/08/24 10:30:25;;;;;;;;;;;;;;;;;;5049464;28;19912;-80
2022/08/24 10:32:50;;;;;;;;;;;;;;;;;;5051891;28;19905;-80
2022/08/24 10:35:15;;;;;;;;;;;;;;;;;;5051085;28;19912;-80
2022/08/24 10:37:40;;;;;;;;;;;;;;;;;;5040288;28;19913;-79
2022/08/24 10:40:06;;;;;;;;;;;;;;;;;;5039885;28;19905;-79
2022/08/24 10:45:16;;;;;;;;;;;;;;;;;;5044078;28;20382;-79
2022/08/24 10:47:41;;;;;;;;;;;;;;;;;;5047461;28;19905;-79
2022/08/24 10:50:06;;;;;;;;;;;;;;;;;;5038737;28;19909;-79
2022/08/24 10:52:31;;;;;;;;;;;;;;;;;;5037798;28;19915;-79
2022/08/24 10:54:56;;;;;;;;;;;;;;;;;;5039546;28;19960;-79
2022/08/24 10:57:21;;;;;;;;;;;;;;;;;;5045222;28;19959;-79
2022/08/24 10:59:46;;;;;;;;;;;;;;;;;;5046394;28;19908;-79
2022/08/24 11:02:12;;;;;;;;;;;;;;;;;;5047103;28;20311;-79
2022/08/24 11:04:38;;;;;;;;;;;;;;;;;;5033644;28;20277;-79
2022/08/24 11:07:03;;;;;;;;;;;;;;;;;;5036028;28;19968;-79
2022/08/24 11:09:28;;;;;;;;;;;;;;;;;;5038699;28;20364;-79
2022/08/24 11:11:53;;;;;;;;;;;;;;;;;;5040955;28;19909;-79
2022/08/24 11:14:18;;;;;;;;;;;;;;;;;;5039115;28;19948;-79
2022/08/24 11:16:44;;;;;;;;;;;;;;;;;;5047457;28;19908;-79
2022/08/24 11:19:09;;;;;;;;;;;;;;;;;;5037958;28;19909;-79
2022/08/24 11:21:35;;;;;;;;;;;;;;;;;;5039161;28;19909;-79
2022/08/24 11:24:00;;;;;;;;;;;;;;;;;;5041510;28;19936;-79
2022/08/24 11:26:25;;;;;;;;;;;;;;;;;;5043659;28;20279;-79
2022/08/24 11:28:50;;;;;;;;;;;;;;;;;;5041366;28;20155;-79
2022/08/24 11:31:16;;;;;;;;;;;;;;;;;;5043050;28;19909;-79
2022/08/24 11:33:41;;;;;;;;;;;;;;;;;;5039593;28;19951;-79
2022/08/24 11:36:06;;;;;;;;;;;;;;;;;;5039545;28;19905;-79
2022/08/24 11:38:33;;;;;;;;;;;;;;;;;;5042715;28;19916;-79
2022/08/24 11:40:58;;;;;;;;;;;;;;;;;;5035244;28;20330;-79
2022/08/24 11:43:25;;;;;;;;;;;;;;;;;;5035509;28;19991;-79
2022/08/24 11:45:50;;;;;;;;;;;;;;;;;;5034213;28;20245;-79
2022/08/24 11:48:15;;;;;;;;;;;;;;;;;;5043212;28;19915;-79
2022/08/24 11:50:40;;;;;;;;;;;;;;;;;;5037224;28;19948;-79
2022/08/24 11:53:06;;;;;;;;;;;;;;;;;;5035307;28;19916;-79
2022/08/24 11:55:31;;;;;;;;;;;;;;;;;;5038207;28;19921;-78
2022/08/24 11:57:56;;;;;;;;;;;;;;;;;;5039194;28;19904;-79
2022/08/24 12:00:21;;;;;;;;;;;;;;;;;;5034300;28;19909;-79
2022/08/24 12:02:46;;;;;;;;;;;;;;;;;;5036980;28;19913;-80
2022/08/24 12:05:12;;;;;;;;;;;;;;;;;;5035209;28;20378;-79
2022/08/24 12:07:37;;;;;;;;;;;;;;;;;;5036613;28;20003;-79
2022/08/24 12:10:02;;;;;;;;;;;;;;;;;;5032354;28;19909;-79
2022/08/24 12:12:27;;;;;;;;;;;;;;;;;;5039905;28;20360;-79
2022/08/24 12:14:53;;;;;;;;;;;;;;;;;;5045520;28;19982;-78
2022/08/24 12:17:19;;;;;;;;;;;;;;;;;;5047343;28;20007;-79
2022/08/24 12:19:44;;;;;;;;;;;;;;;;;;5050702;28;20034;-78
2022/08/24 12:22:09;;;;;;;;;;;;;;;;;;5035658;28;20355;-78
2022/08/24 12:24:34;;;;;;;;;;;;;;;;;;5032577;28;20368;-78
2022/08/24 12:27:01;;;;;;;;;;;;;;;;;;5042395;28;19905;-79
2022/08/24 12:29:27;;;;;;;;;;;;;;;;;;5037323;28;19928;-78
2022/08/24 12:31:52;;;;;;;;;;;;;;;;;;5043983;28;20359;-78
2022/08/24 12:34:17;;;;;;;;;;;;;;;;;;5041194;28;19913;-79
2022/08/24 12:36:43;;;;;;;;;;;;;;;;;;5046529;28;20003;-79
2022/08/24 12:39:08;;;;;;;;;;;;;;;;;;5036661;28;19962;-78
2022/08/24 12:41:34;;;;;;;;;;;;;;;;;;5043444;28;19905;-78
2022/08/24 12:43:59;;;;;;;;;;;;;;;;;;5039493;28;19912;-79
2022/08/24 12:46:24;;;;;;;;;;;;;;;;;;5043724;28;19968;-79
2022/08/24 12:48:49;;;;;;;;;;;;;;;;;;5040198;28;19912;-79
2022/08/24 12:51:14;;;;;;;;;;;;;;;;;;5047204;28;19950;-78
2022/08/24 12:53:39;;;;;;;;;;;;;;;;;;5037206;28;20379;-79
2022/08/24 12:56:05;;;;;;;;;;;;;;;;;;5043140;28;19911;-79
2022/08/24 12:58:30;;;;;;;;;;;;;;;;;;5043931;28;19974;-79
2022/08/24 13:00:55;;;;;;;;;;;;;;;;;;5031180;28;19916;-79
2022/08/24 13:03:20;;;;;;;;;;;;;;;;;;5037310;28;19995;-79
2022/08/24 13:05:47;;;;;;;;;;;;;;;;;;5044111;28;19908;-79
2022/08/24 13:08:12;;;;;;;;;;;;;;;;;;5036664;28;20411;-79
2022/08/24 13:10:37;;;;;;;;;;;;;;;;;;5040138;28;20015;-79
2022/08/24 13:13:02;;;;;;;;;;;;;;;;;;5040728;28;20256;-79
2022/08/24 13:15:28;;;;;;;;;;;;;;;;;;5038167;28;20365;-79
2022/08/24 13:17:53;;;;;;;;;;;;;;;;;;5036348;28;19909;-78
2022/08/24 13:20:18;;;;;;;;;;;;;;;;;;5040454;28;19928;-79
2022/08/24 13:22:45;;;;;;;;;;;;;;;;;;5045850;28;20323;-78
2022/08/24 13:25:11;;;;;;;;;;;;;;;;;;5049519;28;19938;-78
2022/08/24 13:27:36;;;;;;;;;;;;;;;;;;5037069;28;19953;-78
2022/08/24 13:30:01;;;;;;;;;;;;;;;;;;5045329;28;19908;-78
2022/08/24 13:32:26;;;;;;;;;;;;;;;;;;5041755;28;19909;-78
2022/08/24 13:34:51;;;;;;;;;;;;;;;;;;5038437;28;19921;-78
2022/08/24 13:37:17;;;;;;;;;;;;;;;;;;5040869;28;19999;-79
2022/08/24 13:39:42;;;;;;;;;;;;;;;;;;5036817;28;20006;-78
2022/08/24 13:42:09;;;;;;;;;;;;;;;;;;5041709;28;19905;-79
2022/08/24 13:44:34;;;;;;;;;;;;;;;;;;5033890;28;19908;-78
2022/08/24 13:46:59;;;;;;;;;;;;;;;;;;5037601;28;20439;-78
2022/08/24 13:49:25;;;;;;;;;;;;;;;;;;5044018;28;19928;-79
2022/08/24 13:51:50;;;;;;;;;;;;;;;;;;5045055;28;20300;-78
2022/08/24 13:54:15;;;;;;;;;;;;;;;;;;5033137;28;19917;-78
2022/08/24 13:56:40;;;;;;;;;;;;;;;;;;5038335;28;19905;-78
2022/08/24 13:59:05;;;;;;;;;;;;;;;;;;5040591;28;19955;-78
2022/08/24 14:01:30;;;;;;;;;;;;;;;;;;5046049;28;19909;-79
2022/08/24 14:03:55;;;;;;;;;;;;;;;;;;5040917;28;19905;-78
2022/08/24 14:06:21;;;;;;;;;;;;;;;;;;5042031;28;19919;-78
2022/08/24 14:08:46;;;;;;;;;;;;;;;;;;5040047;28;20023;-78
2022/08/24 14:11:12;;;;;;;;;;;;;;;;;;5042967;28;19954;-78
2022/08/24 14:13:37;;;;;;;;;;;;;;;;;;5035117;28;19917;-78
2022/08/24 14:18:46;;;;;;;;;;;;;;;;;;5041642;28;19911;-78
2022/08/24 14:21:11;;;;;;;;;;;;;;;;;;5043793;28;19923;-78
2022/08/24 14:23:36;;;;;;;;;;;;;;;;;;5038769;28;20007;-78
2022/08/24 14:26:02;;;;;;;;;;;;;;;;;;5041468;28;19905;-78
2022/08/24 14:28:27;;;;;;;;;;;;;;;;;;5044165;28;19982;-78
2022/08/24 14:30:52;;;;;;;;;;;;;;;;;;5049327;28;19912;-77
2022/08/24 14:33:18;;;;;;;;;;;;;;;;;;5045894;28;19958;-78
2022/08/24 14:35:43;;;;;;;;;;;;;;;;;;5049059;28;19954;-78
2022/08/24 14:38:09;;;;;;;;;;;;;;;;;;5049226;28;19904;-78
2022/08/24 14:40:34;;;;;;;;;;;;;;;;;;5052886;28;19915;-79
2022/08/24 14:42:59;;;;;;;;;;;;;;;;;;5050767;28;19950;-80
2022/08/24 14:45:24;;;;;;;;;;;;;;;;;;5050240;28;19912;-80
2022/08/24 14:47:49;;;;;;;;;;;;;;;;;;5052810;28;19933;-81
2022/08/24 14:50:14;;;;;;;;;;;;;;;;;;5052379;28;19999;-82
2022/08/24 14:52:40;;;;;;;;;;;;;;;;;;5047718;28;19905;-81
2022/08/24 14:55:05;;;;;;;;;;;;;;;;;;5044320;28;19913;-81
2022/08/24 14:57:30;;;;;;;;;;;;;;;;;;5047347;28;19913;-82
2022/08/24 14:59:55;;;;;;;;;;;;;;;;;;5047392;28;20332;-82
2022/08/24 15:02:20;;;;;;;;;;;;;;;;;;5046277;28;19905;-83
2022/08/24 15:04:45;;;;;;;;;;;;;;;;;;5036853;28;20372;-83
2022/08/24 15:07:10;;;;;;;;;;;;;;;;;;5041570;28;19909;-83
2022/08/24 15:09:37;;;;;;;;;;;;;;;;;;5044096;28;19912;-82
2022/08/24 15:12:02;;;;;;;;;;;;;;;;;;5044901;28;19923;-83
2022/08/24 15:14:27;;;;;;;;;;;;;;;;;;5042455;28;19995;-83
2022/08/24 15:16:53;;;;;;;;;;;;;;;;;;5050298;28;19909;-82
2022/08/24 15:19:18;;;;;;;;;;;;;;;;;;5049107;28;19962;-84
2022/08/24 15:21:43;;;;;;;;;;;;;;;;;;5052989;28;19911;-84
2022/08/24 15:24:09;;;;;;;;;;;;;;;;;;5039216;28;19924;-83
2022/08/24 15:26:35;;;;;;;;;;;;;;;;;;5030262;28;19954;-80
2022/08/24 15:29:00;;;;;;;;;;;;;;;;;;5038631;28;19905;-84
2022/08/24 15:31:25;;;;;;;;;;;;;;;;;;5040891;28;20268;-83
2022/08/24 15:33:50;;;;;;;;;;;;;;;;;;5033362;28;20411;-83
2022/08/24 15:36:15;;;;;;;;;;;;;;;;;;5039869;28;19963;-84
2022/08/24 15:38:41;;;;;;;;;;;;;;;;;;5036144;28;19905;-79
2022/08/24 15:41:06;;;;;;;;;;;;;;;;;;5038694;28;19963;-84
2022/08/24 15:43:31;;;;;;;;;;;;;;;;;;5037061;28;19916;-79
2022/08/24 15:45:56;;;;;;;;;;;;;;;;;;5036885;28;19913;-79
2022/08/24 15:48:23;;;;;;;;;;;;;;;;;;5040838;28;20280;-78
2022/08/24 15:50:48;;;;;;;;;;;;;;;;;;5043993;28;20643;-79
2022/08/24 15:53:13;;;;;;;;;;;;;;;;;;5046556;28;19958;-79
2022/08/24 15:55:38;;;;;;;;;;;;;;;;;;5037623;28;20034;-79
2022/08/24 15:58:03;;;;;;;;;;;;;;;;;;5040320;28;19905;-79
2022/08/24 16:03:12;;;;;;;;;;;;;;;;;;5040030;28;20041;-81
2022/08/24 16:05:37;;;;;;;;;;;;;;;;;;5042590;28;19909;-82
2022/08/24 16:08:02;;;;;;;;;;;;;;;;;;5043363;28;19916;-82
2022/08/24 16:10:28;;;;;;;;;;;;;;;;;;5039903;28;19905;-80
2022/08/24 16:12:53;;;;;;;;;;;;;;;;;;5042139;28;19920;-81
2022/08/24 16:15:18;;;;;;;;;;;;;;;;;;5033788;28;19913;-81
2022/08/24 16:17:44;;;;;;;;;;;;;;;;;;5033011;28;19916;-82
2022/08/24 16:20:09;;;;;;;;;;;;;;;;;;5034185;28;19906;-82
2022/08/24 16:22:34;;;;;;;;;;;;;;;;;;5034460;28;19909;-81
2022/08/24 16:24:59;;;;;;;;;;;;;;;;;;5037859;28;19913;-81
2022/08/24 16:27:24;;;;;;;;;;;;;;;;;;5031861;28;20919;-81
2022/08/24 16:29:51;;;;;;;;;;;;;;;;;;5037070;28;20398;-82
2022/08/24 16:32:16;;;;;;;;;;;;;;;;;;5033849;28;19912;-82
2022/08/24 16:34:41;;;;;;;;;;;;;;;;;;5033773;28;19920;-81
2022/08/24 16:37:06;;;;;;;;;;;;;;;;;;5037927;28;19913;-83
2022/08/24 16:39:31;;;;;;;;;;;;;;;;;;5039441;28;19909;-83
2022/08/24 16:41:57;;;;;;;;;;;;;;;;;;5040525;28;19913;-83
2022/08/24 16:44:22;;;;;;;;;;;;;;;;;;5038626;28;19912;-82
2022/08/24 16:46:47;;;;;;;;;;;;;;;;;;5037531;28;19912;-82
2022/08/24 16:49:12;;;;;;;;;;;;;;;;;;5032668;28;19906;-82